sensor_id;sensor_type;location;lat;lon;timestamp;temperature;humidity
29203;DHT22;16245;51.170;4.884;2022-12-18T00:01:27;-4.80;99.90
29203;DHT22;16245;51.170;4.884;2022-12-18T00:03:54;-4.90;99.90
29203;DHT22;16245;51.170;4.884;2022-12-18T00:06:21;-4.90;99.90
29203;DHT22;16245;51.170;4.884;2022-12-18T00:08:47;-4.80;99.90
29203;DHT22;16245;51.170;4.884;2022-12-18T00:11:21;-4.70;99.90
29203;DHT22;16245;51.170;4.884;2022-12-18T00:13:47;-4.90;99.90
29203;DHT22;16245;51.170;4.884;2022-12-18T00:16:16;-5.00;99.90
29203;DHT22;16245;51.170;4.884;2022-12-18T00:18:43;-5.00;99.90
29203;DHT22;16245;51.170;4.884;2022-12-18T00:21:11;-5.10;99.90
29203;DHT22;16245;51.170;4.884;2022-12-18T00:23:38;-5.10;99.90
29203;DHT22;16245;51.170;4.884;2022-12-18T00:26:14;-5.20;99.90
29203;DHT22;16245;51.170;4.884;2022-12-18T00:28:41;-5.20;99.90
29203;DHT22;16245;51.170;4.884;2022-12-18T00:31:09;-5.20;99.90
29203;DHT22;16245;51.170;4.884;2022-12-18T00:33:36;-5.30;99.90
29203;DHT22;16245;51.170;4.884;2022-12-18T00:36:08;-5.30;99.90
29203;DHT22;16245;51.170;4.884;2022-12-18T00:38:34;-5.30;99.90
29203;DHT22;16245;51.170;4.884;2022-12-18T00:41:00;-5.20;99.90
29203;DHT22;16245;51.170;4.884;2022-12-18T00:43:26;-5.20;99.90
29203;DHT22;16245;51.170;4.884;2022-12-18T00:45:52;-5.30;99.90
29203;DHT22;16245;51.170;4.884;2022-12-18T00:48:18;-5.40;99.90
29203;DHT22;16245;51.170;4.884;2022-12-18T00:50:43;-5.40;99.90
29203;DHT22;16245;51.170;4.884;2022-12-18T00:53:09;-5.50;99.90
29203;DHT22;16245;51.170;4.884;2022-12-18T00:55:37;-5.60;99.90
29203;DHT22;16245;51.170;4.884;2022-12-18T00:58:04;-5.60;99.90
29203;DHT22;16245;51.170;4.884;2022-12-18T01:00:30;-5.70;99.90
29203;DHT22;16245;51.170;4.884;2022-12-18T01:02:55;-5.60;99.90
29203;DHT22;16245;51.170;4.884;2022-12-18T01:05:21;-5.70;99.90
29203;DHT22;16245;51.170;4.884;2022-12-18T01:07:47;-5.70;99.90
29203;DHT22;16245;51.170;4.884;2022-12-18T01:10:13;-5.60;99.90
29203;DHT22;16245;51.170;4.884;2022-12-18T01:12:39;-5.60;99.90
29203;DHT22;16245;51.170;4.884;2022-12-18T01:15:06;-5.70;99.90
29203;DHT22;16245;51.170;4.884;2022-12-18T01:17:33;-5.80;99.90
29203;DHT22;16245;51.170;4.884;2022-12-18T01:19:58;-5.80;99.90
29203;DHT22;16245;51.170;4.884;2022-12-18T01:22:24;-5.80;99.90
29203;DHT22;16245;51.170;4.884;2022-12-18T01:24:50;-5.90;99.90
29203;DHT22;16245;51.170;4.884;2022-12-18T01:27:16;-5.90;99.90
29203;DHT22;16245;51.170;4.884;2022-12-18T01:29:41;-5.90;99.90
29203;DHT22;16245;51.170;4.884;2022-12-18T01:32:08;-5.90;99.90
29203;DHT22;16245;51.170;4.884;2022-12-18T01:34:35;-6.00;99.90
29203;DHT22;16245;51.170;4.884;2022-12-18T01:37:03;-6.00;99.90
29203;DHT22;16245;51.170;4.884;2022-12-18T01:39:29;-6.00;99.90
29203;DHT22;16245;51.170;4.884;2022-12-18T01:41:54;-6.00;99.90
29203;DHT22;16245;51.170;4.884;2022-12-18T01:52:47;-6.00;99.90
29203;DHT22;16245;51.170;4.884;2022-12-18T01:55:16;-6.10;99.90
29203;DHT22;16245;51.170;4.884;2022-12-18T01:57:42;-6.00;99.90
29203;DHT22;16245;51.170;4.884;2022-12-18T02:00:16;-6.00;99.90
29203;DHT22;16245;51.170;4.884;2022-12-18T02:02:44;-6.10;99.90
29203;DHT22;16245;51.170;4.884;2022-12-18T02:05:12;-6.10;99.90
29203;DHT22;16245;51.170;4.884;2022-12-18T02:08:30;-6.10;99.90
29203;DHT22;16245;51.170;4.884;2022-12-18T02:19:14;-6.20;99.90
29203;DHT22;16245;51.170;4.884;2022-12-18T02:22:20;-6.20;99.90
29203;DHT22;16245;51.170;4.884;2022-12-18T02:27:39;-6.40;99.90
29203;DHT22;16245;51.170;4.884;2022-12-18T02:30:07;-6.50;99.90
29203;DHT22;16245;51.170;4.884;2022-12-18T02:32:42;-6.50;99.90
29203;DHT22;16245;51.170;4.884;2022-12-18T02:35:13;-6.60;99.90
29203;DHT22;16245;51.170;4.884;2022-12-18T02:37:41;-6.60;99.90
29203;DHT22;16245;51.170;4.884;2022-12-18T02:40:09;-6.60;99.90
29203;DHT22;16245;51.170;4.884;2022-12-18T02:42:37;-6.50;99.90
29203;DHT22;16245;51.170;4.884;2022-12-18T02:45:03;-6.60;99.90
29203;DHT22;16245;51.170;4.884;2022-12-18T02:47:32;-6.60;99.90
29203;DHT22;16245;51.170;4.884;2022-12-18T03:00:41;-6.70;99.90
29203;DHT22;16245;51.170;4.884;2022-12-18T03:03:16;-6.70;99.90
29203;DHT22;16245;51.170;4.884;2022-12-18T03:05:51;-6.70;99.90
29203;DHT22;16245;51.170;4.884;2022-12-18T03:08:28;-6.60;99.90
29203;DHT22;16245;51.170;4.884;2022-12-18T03:10:58;-6.60;99.90
29203;DHT22;16245;51.170;4.884;2022-12-18T03:15:59;-6.50;99.90
29203;DHT22;16245;51.170;4.884;2022-12-18T03:18:30;-6.50;99.90
29203;DHT22;16245;51.170;4.884;2022-12-18T03:21:02;-6.70;99.90
29203;DHT22;16245;51.170;4.884;2022-12-18T03:23:34;-6.70;99.90
29203;DHT22;16245;51.170;4.884;2022-12-18T03:26:05;-6.60;99.90
29203;DHT22;16245;51.170;4.884;2022-12-18T03:28:35;-6.60;99.90
29203;DHT22;16245;51.170;4.884;2022-12-18T03:31:04;-6.70;99.90
29203;DHT22;16245;51.170;4.884;2022-12-18T03:33:46;-6.70;99.90
29203;DHT22;16245;51.170;4.884;2022-12-18T03:36:12;-6.70;99.90
29203;DHT22;16245;51.170;4.884;2022-12-18T03:38:38;-6.80;99.90
29203;DHT22;16245;51.170;4.884;2022-12-18T03:41:11;-6.80;99.90
29203;DHT22;16245;51.170;4.884;2022-12-18T03:47:05;-6.80;99.90
29203;DHT22;16245;51.170;4.884;2022-12-18T03:49:42;-6.90;99.90
29203;DHT22;16245;51.170;4.884;2022-12-18T03:52:30;-6.80;99.90
29203;DHT22;16245;51.170;4.884;2022-12-18T03:54:58;-6.70;99.90
29203;DHT22;16245;51.170;4.884;2022-12-18T03:57:26;-6.70;99.90
29203;DHT22;16245;51.170;4.884;2022-12-18T03:59:56;-6.80;99.90
29203;DHT22;16245;51.170;4.884;2022-12-18T04:02:25;-6.80;99.90
29203;DHT22;16245;51.170;4.884;2022-12-18T04:04:53;-6.80;99.90
29203;DHT22;16245;51.170;4.884;2022-12-18T04:07:20;-6.80;99.90
29203;DHT22;16245;51.170;4.884;2022-12-18T04:09:48;-6.80;99.90
29203;DHT22;16245;51.170;4.884;2022-12-18T04:12:14;-6.90;99.90
29203;DHT22;16245;51.170;4.884;2022-12-18T04:14:40;-6.90;99.90
29203;DHT22;16245;51.170;4.884;2022-12-18T04:17:05;-6.80;99.90
29203;DHT22;16245;51.170;4.884;2022-12-18T04:19:31;-6.70;99.90
29203;DHT22;16245;51.170;4.884;2022-12-18T04:21:57;-6.80;99.90
29203;DHT22;16245;51.170;4.884;2022-12-18T04:24:22;-6.90;99.90
29203;DHT22;16245;51.170;4.884;2022-12-18T04:26:48;-6.90;99.90
29203;DHT22;16245;51.170;4.884;2022-12-18T04:29:14;-7.00;99.90
29203;DHT22;16245;51.170;4.884;2022-12-18T04:31:39;-7.00;99.90
29203;DHT22;16245;51.170;4.884;2022-12-18T04:34:05;-7.00;99.90
29203;DHT22;16245;51.170;4.884;2022-12-18T04:36:31;-7.00;99.90
29203;DHT22;16245;51.170;4.884;2022-12-18T04:38:57;-7.00;99.90
29203;DHT22;16245;51.170;4.884;2022-12-18T04:41:22;-7.00;99.90
29203;DHT22;16245;51.170;4.884;2022-12-18T04:43:48;-7.10;99.90
29203;DHT22;16245;51.170;4.884;2022-12-18T04:46:14;-7.10;99.90
29203;DHT22;16245;51.170;4.884;2022-12-18T04:48:41;-7.20;99.90
29203;DHT22;16245;51.170;4.884;2022-12-18T04:51:07;-7.10;99.90
29203;DHT22;16245;51.170;4.884;2022-12-18T04:53:33;-7.10;99.90
29203;DHT22;16245;51.170;4.884;2022-12-18T04:56:10;-7.10;99.90
29203;DHT22;16245;51.170;4.884;2022-12-18T04:58:36;-7.00;99.90
29203;DHT22;16245;51.170;4.884;2022-12-18T05:01:02;-6.90;99.90
29203;DHT22;16245;51.170;4.884;2022-12-18T05:03:29;-7.00;99.90
29203;DHT22;16245;51.170;4.884;2022-12-18T05:05:55;-7.10;99.90
29203;DHT22;16245;51.170;4.884;2022-12-18T05:08:20;-7.10;99.90
29203;DHT22;16245;51.170;4.884;2022-12-18T05:10:46;-7.00;99.90
29203;DHT22;16245;51.170;4.884;2022-12-18T05:13:12;-6.90;99.90
29203;DHT22;16245;51.170;4.884;2022-12-18T05:15:38;-6.90;99.90
29203;DHT22;16245;51.170;4.884;2022-12-18T05:18:04;-7.00;99.90
29203;DHT22;16245;51.170;4.884;2022-12-18T05:20:30;-7.10;99.90
29203;DHT22;16245;51.170;4.884;2022-12-18T05:22:56;-7.20;99.90
29203;DHT22;16245;51.170;4.884;2022-12-18T05:25:22;-7.20;99.90
29203;DHT22;16245;51.170;4.884;2022-12-18T05:27:48;-7.10;99.90
29203;DHT22;16245;51.170;4.884;2022-12-18T05:30:15;-7.20;99.90
29203;DHT22;16245;51.170;4.884;2022-12-18T05:32:40;-7.20;99.90
29203;DHT22;16245;51.170;4.884;2022-12-18T05:35:08;-7.20;99.90
29203;DHT22;16245;51.170;4.884;2022-12-18T05:37:34;-7.30;99.90
29203;DHT22;16245;51.170;4.884;2022-12-18T05:40:00;-7.30;99.90
29203;DHT22;16245;51.170;4.884;2022-12-18T05:42:26;-7.30;99.90
29203;DHT22;16245;51.170;4.884;2022-12-18T05:44:52;-7.30;99.90
29203;DHT22;16245;51.170;4.884;2022-12-18T05:47:17;-7.30;99.90
29203;DHT22;16245;51.170;4.884;2022-12-18T05:49:43;-7.30;99.90
29203;DHT22;16245;51.170;4.884;2022-12-18T05:52:09;-7.40;99.90
29203;DHT22;16245;51.170;4.884;2022-12-18T05:54:34;-7.30;99.90
29203;DHT22;16245;51.170;4.884;2022-12-18T05:57:00;-7.20;99.90
29203;DHT22;16245;51.170;4.884;2022-12-18T05:59:26;-7.20;99.90
29203;DHT22;16245;51.170;4.884;2022-12-18T06:01:52;-7.30;99.90
29203;DHT22;16245;51.170;4.884;2022-12-18T06:04:17;-7.30;99.90
29203;DHT22;16245;51.170;4.884;2022-12-18T06:06:43;-7.20;99.90
29203;DHT22;16245;51.170;4.884;2022-12-18T06:09:09;-7.20;99.90
29203;DHT22;16245;51.170;4.884;2022-12-18T06:11:38;-7.20;99.90
29203;DHT22;16245;51.170;4.884;2022-12-18T06:14:05;-7.20;99.90
29203;DHT22;16245;51.170;4.884;2022-12-18T06:16:31;-7.10;99.90
29203;DHT22;16245;51.170;4.884;2022-12-18T06:19:01;-7.20;99.90
29203;DHT22;16245;51.170;4.884;2022-12-18T06:21:28;-7.30;99.90
29203;DHT22;16245;51.170;4.884;2022-12-18T06:23:53;-7.20;99.90
29203;DHT22;16245;51.170;4.884;2022-12-18T06:26:19;-7.30;99.90
29203;DHT22;16245;51.170;4.884;2022-12-18T06:28:45;-7.30;99.90
29203;DHT22;16245;51.170;4.884;2022-12-18T06:31:11;-7.40;99.90
29203;DHT22;16245;51.170;4.884;2022-12-18T06:33:37;-7.30;99.90
29203;DHT22;16245;51.170;4.884;2022-12-18T06:36:12;-7.30;99.90
29203;DHT22;16245;51.170;4.884;2022-12-18T06:38:40;-7.30;99.90
29203;DHT22;16245;51.170;4.884;2022-12-18T06:41:07;-7.30;99.90
29203;DHT22;16245;51.170;4.884;2022-12-18T06:43:33;-7.30;99.90
29203;DHT22;16245;51.170;4.884;2022-12-18T06:46:00;-7.40;99.90
29203;DHT22;16245;51.170;4.884;2022-12-18T06:48:25;-7.50;99.90
29203;DHT22;16245;51.170;4.884;2022-12-18T06:50:51;-7.50;99.90
29203;DHT22;16245;51.170;4.884;2022-12-18T06:53:17;-7.30;99.90
29203;DHT22;16245;51.170;4.884;2022-12-18T06:55:43;-7.10;99.90
29203;DHT22;16245;51.170;4.884;2022-12-18T06:58:08;-7.10;99.90
29203;DHT22;16245;51.170;4.884;2022-12-18T07:00:34;-7.10;99.90
29203;DHT22;16245;51.170;4.884;2022-12-18T07:03:00;-7.20;99.90
29203;DHT22;16245;51.170;4.884;2022-12-18T07:05:26;-7.20;99.90
29203;DHT22;16245;51.170;4.884;2022-12-18T07:07:51;-7.30;99.90
29203;DHT22;16245;51.170;4.884;2022-12-18T07:10:17;-7.40;99.90
29203;DHT22;16245;51.170;4.884;2022-12-18T07:12:43;-7.50;99.90
29203;DHT22;16245;51.170;4.884;2022-12-18T07:15:09;-7.40;99.90
29203;DHT22;16245;51.170;4.884;2022-12-18T07:17:35;-7.30;99.90
29203;DHT22;16245;51.170;4.884;2022-12-18T07:20:00;-7.20;99.90
29203;DHT22;16245;51.170;4.884;2022-12-18T07:22:26;-7.10;99.90
29203;DHT22;16245;51.170;4.884;2022-12-18T07:24:52;-7.10;99.90
29203;DHT22;16245;51.170;4.884;2022-12-18T07:27:18;-7.10;99.90
29203;DHT22;16245;51.170;4.884;2022-12-18T07:29:46;-7.20;99.90
29203;DHT22;16245;51.170;4.884;2022-12-18T07:32:12;-7.20;99.90
29203;DHT22;16245;51.170;4.884;2022-12-18T07:34:38;-7.10;99.90
29203;DHT22;16245;51.170;4.884;2022-12-18T07:37:03;-7.10;99.90
29203;DHT22;16245;51.170;4.884;2022-12-18T07:39:29;-7.00;99.90
29203;DHT22;16245;51.170;4.884;2022-12-18T07:41:55;-7.10;99.90
29203;DHT22;16245;51.170;4.884;2022-12-18T07:44:39;-7.00;99.90
29203;DHT22;16245;51.170;4.884;2022-12-18T07:47:05;-6.90;99.90
29203;DHT22;16245;51.170;4.884;2022-12-18T07:49:30;-7.00;99.90
29203;DHT22;16245;51.170;4.884;2022-12-18T07:51:56;-7.00;99.90
29203;DHT22;16245;51.170;4.884;2022-12-18T07:54:23;-7.00;99.90
29203;DHT22;16245;51.170;4.884;2022-12-18T07:56:50;-6.90;99.90
29203;DHT22;16245;51.170;4.884;2022-12-18T07:59:16;-6.90;99.90
29203;DHT22;16245;51.170;4.884;2022-12-18T08:01:41;-6.80;99.90
29203;DHT22;16245;51.170;4.884;2022-12-18T08:04:07;-6.90;99.90
29203;DHT22;16245;51.170;4.884;2022-12-18T08:06:33;-6.80;99.90
29203;DHT22;16245;51.170;4.884;2022-12-18T08:08:58;-6.80;99.90
29203;DHT22;16245;51.170;4.884;2022-12-18T08:11:26;-6.70;99.90
29203;DHT22;16245;51.170;4.884;2022-12-18T08:13:53;-6.60;99.90
29203;DHT22;16245;51.170;4.884;2022-12-18T08:16:20;-6.60;99.90
29203;DHT22;16245;51.170;4.884;2022-12-18T08:18:47;-6.50;99.90
29203;DHT22;16245;51.170;4.884;2022-12-18T08:21:13;-6.40;99.90
29203;DHT22;16245;51.170;4.884;2022-12-18T08:23:40;-6.30;99.90
29203;DHT22;16245;51.170;4.884;2022-12-18T08:26:06;-6.20;99.90
29203;DHT22;16245;51.170;4.884;2022-12-18T08:28:32;-6.10;99.90
29203;DHT22;16245;51.170;4.884;2022-12-18T08:30:58;-6.00;99.90
29203;DHT22;16245;51.170;4.884;2022-12-18T08:33:24;-5.90;99.90
29203;DHT22;16245;51.170;4.884;2022-12-18T08:35:50;-5.80;99.90
29203;DHT22;16245;51.170;4.884;2022-12-18T08:38:15;-5.70;99.90
29203;DHT22;16245;51.170;4.884;2022-12-18T08:40:41;-5.50;99.90
29203;DHT22;16245;51.170;4.884;2022-12-18T08:43:09;-5.30;99.90
29203;DHT22;16245;51.170;4.884;2022-12-18T08:45:53;-5.20;99.90
29203;DHT22;16245;51.170;4.884;2022-12-18T08:48:19;-5.10;99.90
29203;DHT22;16245;51.170;4.884;2022-12-18T08:50:54;-5.00;99.90
29203;DHT22;16245;51.170;4.884;2022-12-18T08:53:20;-4.70;99.90
29203;DHT22;16245;51.170;4.884;2022-12-18T08:55:46;-4.70;99.90
29203;DHT22;16245;51.170;4.884;2022-12-18T08:58:11;-4.60;99.90
29203;DHT22;16245;51.170;4.884;2022-12-18T09:00:37;-4.50;99.90
29203;DHT22;16245;51.170;4.884;2022-12-18T09:03:03;-4.40;99.90
29203;DHT22;16245;51.170;4.884;2022-12-18T09:05:28;-4.20;99.90
29203;DHT22;16245;51.170;4.884;2022-12-18T09:07:55;-4.10;99.90
29203;DHT22;16245;51.170;4.884;2022-12-18T09:10:21;-4.00;99.90
29203;DHT22;16245;51.170;4.884;2022-12-18T09:12:47;-3.80;99.90
29203;DHT22;16245;51.170;4.884;2022-12-18T09:15:13;-3.70;99.90
29203;DHT22;16245;51.170;4.884;2022-12-18T09:17:38;-3.50;99.90
29203;DHT22;16245;51.170;4.884;2022-12-18T09:20:05;-3.40;99.90
29203;DHT22;16245;51.170;4.884;2022-12-18T09:22:31;-3.20;99.90
29203;DHT22;16245;51.170;4.884;2022-12-18T09:24:56;-3.20;99.90
29203;DHT22;16245;51.170;4.884;2022-12-18T09:27:22;-3.20;99.90
29203;DHT22;16245;51.170;4.884;2022-12-18T09:29:47;-3.10;99.90
29203;DHT22;16245;51.170;4.884;2022-12-18T09:32:14;-2.90;99.90
29203;DHT22;16245;51.170;4.884;2022-12-18T09:34:40;-2.80;99.90
29203;DHT22;16245;51.170;4.884;2022-12-18T09:37:06;-2.60;99.90
29203;DHT22;16245;51.170;4.884;2022-12-18T09:39:31;-2.50;99.90
29203;DHT22;16245;51.170;4.884;2022-12-18T09:41:57;-2.30;99.90
29203;DHT22;16245;51.170;4.884;2022-12-18T09:44:27;-2.30;99.90
29203;DHT22;16245;51.170;4.884;2022-12-18T09:47:27;-2.30;99.90
29203;DHT22;16245;51.170;4.884;2022-12-18T09:50:03;-2.30;99.90
29203;DHT22;16245;51.170;4.884;2022-12-18T09:52:45;-2.30;99.90
29203;DHT22;16245;51.170;4.884;2022-12-18T09:57:49;-2.00;99.90
29203;DHT22;16245;51.170;4.884;2022-12-18T10:00:24;-1.90;99.90
29203;DHT22;16245;51.170;4.884;2022-12-18T10:02:52;-1.90;99.90
29203;DHT22;16245;51.170;4.884;2022-12-18T10:11:12;-2.00;99.90
29203;DHT22;16245;51.170;4.884;2022-12-18T10:13:57;-2.00;99.90
29203;DHT22;16245;51.170;4.884;2022-12-18T10:21:41;-1.90;99.90
29203;DHT22;16245;51.170;4.884;2022-12-18T10:27:13;-1.70;99.90
29203;DHT22;16245;51.170;4.884;2022-12-18T10:29:40;-1.60;99.90
29203;DHT22;16245;51.170;4.884;2022-12-18T10:32:07;-1.60;99.90
29203;DHT22;16245;51.170;4.884;2022-12-18T10:34:34;-1.50;99.90
29203;DHT22;16245;51.170;4.884;2022-12-18T10:37:03;-1.50;99.90
29203;DHT22;16245;51.170;4.884;2022-12-18T10:39:31;-1.40;99.90
29203;DHT22;16245;51.170;4.884;2022-12-18T10:42:29;-1.40;99.90
29203;DHT22;16245;51.170;4.884;2022-12-18T10:45:12;-1.40;99.90
29203;DHT22;16245;51.170;4.884;2022-12-18T10:47:49;-1.30;99.90
29203;DHT22;16245;51.170;4.884;2022-12-18T10:50:33;-1.40;99.90
29203;DHT22;16245;51.170;4.884;2022-12-18T10:53:01;-1.40;99.90
29203;DHT22;16245;51.170;4.884;2022-12-18T10:55:31;-1.30;99.90
29203;DHT22;16245;51.170;4.884;2022-12-18T10:58:16;-1.40;99.90
29203;DHT22;16245;51.170;4.884;2022-12-18T11:00:44;-1.30;99.90
29203;DHT22;16245;51.170;4.884;2022-12-18T11:03:34;-1.20;99.90
29203;DHT22;16245;51.170;4.884;2022-12-18T11:08:31;-1.20;99.90
29203;DHT22;16245;51.170;4.884;2022-12-18T11:11:01;-1.10;99.90
29203;DHT22;16245;51.170;4.884;2022-12-18T11:13:29;-1.10;99.90
29203;DHT22;16245;51.170;4.884;2022-12-18T11:15:55;-1.00;99.90
29203;DHT22;16245;51.170;4.884;2022-12-18T11:18:35;-0.90;99.90
29203;DHT22;16245;51.170;4.884;2022-12-18T11:21:09;-0.90;99.90
29203;DHT22;16245;51.170;4.884;2022-12-18T11:23:43;-0.80;99.90
29203;DHT22;16245;51.170;4.884;2022-12-18T11:26:11;-0.80;99.90
29203;DHT22;16245;51.170;4.884;2022-12-18T11:28:51;-0.80;99.90
29203;DHT22;16245;51.170;4.884;2022-12-18T11:31:26;-0.70;99.90
29203;DHT22;16245;51.170;4.884;2022-12-18T11:36:43;-0.50;99.90
29203;DHT22;16245;51.170;4.884;2022-12-18T11:39:18;-0.50;99.90
29203;DHT22;16245;51.170;4.884;2022-12-18T11:48:04;-0.30;99.90
29203;DHT22;16245;51.170;4.884;2022-12-18T11:50:46;-0.20;99.90
29203;DHT22;16245;51.170;4.884;2022-12-18T11:53:12;-0.20;99.90
29203;DHT22;16245;51.170;4.884;2022-12-18T12:01:13;0.00;99.90
29203;DHT22;16245;51.170;4.884;2022-12-18T12:07:12;0.10;99.90
29203;DHT22;16245;51.170;4.884;2022-12-18T12:09:56;0.10;99.90
29203;DHT22;16245;51.170;4.884;2022-12-18T12:16:27;0.20;99.90
29203;DHT22;16245;51.170;4.884;2022-12-18T12:27:17;0.20;99.90
29203;DHT22;16245;51.170;4.884;2022-12-18T12:30:16;0.20;99.90
29203;DHT22;16245;51.170;4.884;2022-12-18T12:33:02;0.30;99.90
29203;DHT22;16245;51.170;4.884;2022-12-18T12:35:32;0.30;99.90
29203;DHT22;16245;51.170;4.884;2022-12-18T12:40:54;0.30;99.90
29203;DHT22;16245;51.170;4.884;2022-12-18T12:43:44;0.30;99.90
29203;DHT22;16245;51.170;4.884;2022-12-18T12:46:15;0.40;99.90
29203;DHT22;16245;51.170;4.884;2022-12-18T12:49:15;0.40;99.90
29203;DHT22;16245;51.170;4.884;2022-12-18T12:51:44;0.40;99.90
29203;DHT22;16245;51.170;4.884;2022-12-18T12:54:23;0.50;99.90
29203;DHT22;16245;51.170;4.884;2022-12-18T12:57:00;0.60;99.90
29203;DHT22;16245;51.170;4.884;2022-12-18T13:00:05;0.60;99.90
29203;DHT22;16245;51.170;4.884;2022-12-18T13:05:24;0.80;99.90
29203;DHT22;16245;51.170;4.884;2022-12-18T13:07:55;0.70;99.90
29203;DHT22;16245;51.170;4.884;2022-12-18T13:10:26;0.70;99.90
29203;DHT22;16245;51.170;4.884;2022-12-18T13:13:05;0.60;99.90
29203;DHT22;16245;51.170;4.884;2022-12-18T13:16:04;0.70;99.90
29203;DHT22;16245;51.170;4.884;2022-12-18T13:18:33;0.70;99.90
29203;DHT22;16245;51.170;4.884;2022-12-18T13:25:51;0.70;99.90
29203;DHT22;16245;51.170;4.884;2022-12-18T13:30:55;0.70;99.90
29203;DHT22;16245;51.170;4.884;2022-12-18T13:33:37;0.70;99.90
29203;DHT22;16245;51.170;4.884;2022-12-18T13:36:33;0.80;99.90
29203;DHT22;16245;51.170;4.884;2022-12-18T13:39:11;0.70;99.90
29203;DHT22;16245;51.170;4.884;2022-12-18T13:41:41;0.60;99.90
29203;DHT22;16245;51.170;4.884;2022-12-18T13:44:34;0.50;99.90
29203;DHT22;16245;51.170;4.884;2022-12-18T13:47:02;0.60;99.90
29203;DHT22;16245;51.170;4.884;2022-12-18T13:49:49;0.60;99.90
29203;DHT22;16245;51.170;4.884;2022-12-18T13:52:22;0.50;99.90
29203;DHT22;16245;51.170;4.884;2022-12-18T13:54:51;0.50;99.90
29203;DHT22;16245;51.170;4.884;2022-12-18T13:59:52;0.60;99.90
29203;DHT22;16245;51.170;4.884;2022-12-18T14:02:22;0.60;99.90
29203;DHT22;16245;51.170;4.884;2022-12-18T14:04:49;0.60;99.90
29203;DHT22;16245;51.170;4.884;2022-12-18T14:07:17;0.60;99.90
29203;DHT22;16245;51.170;4.884;2022-12-18T14:09:49;0.70;99.90
29203;DHT22;16245;51.170;4.884;2022-12-18T14:12:21;0.70;99.90
29203;DHT22;16245;51.170;4.884;2022-12-18T14:15:15;0.80;99.90
29203;DHT22;16245;51.170;4.884;2022-12-18T14:17:46;0.80;99.90
29203;DHT22;16245;51.170;4.884;2022-12-18T14:20:14;0.70;99.90
29203;DHT22;16245;51.170;4.884;2022-12-18T14:22:45;0.80;99.90
29203;DHT22;16245;51.170;4.884;2022-12-18T14:27:42;0.80;99.90
29203;DHT22;16245;51.170;4.884;2022-12-18T14:35:35;0.90;99.90
29203;DHT22;16245;51.170;4.884;2022-12-18T14:40:43;0.90;99.90
29203;DHT22;16245;51.170;4.884;2022-12-18T14:43:10;0.90;99.90
29203;DHT22;16245;51.170;4.884;2022-12-18T14:45:43;0.90;99.90
29203;DHT22;16245;51.170;4.884;2022-12-18T14:49:02;0.90;99.90
29203;DHT22;16245;51.170;4.884;2022-12-18T14:51:31;0.80;99.90
29203;DHT22;16245;51.170;4.884;2022-12-18T14:54:05;0.70;99.90
29203;DHT22;16245;51.170;4.884;2022-12-18T14:56:48;0.60;99.90
29203;DHT22;16245;51.170;4.884;2022-12-18T14:59:24;0.70;99.90
29203;DHT22;16245;51.170;4.884;2022-12-18T15:04:32;0.40;99.90
29203;DHT22;16245;51.170;4.884;2022-12-18T15:09:28;0.50;99.90
29203;DHT22;16245;51.170;4.884;2022-12-18T15:11:59;0.60;99.90
29203;DHT22;16245;51.170;4.884;2022-12-18T15:14:33;0.60;99.90
29203;DHT22;16245;51.170;4.884;2022-12-18T15:17:02;0.60;99.90
29203;DHT22;16245;51.170;4.884;2022-12-18T15:19:39;0.90;99.90
29203;DHT22;16245;51.170;4.884;2022-12-18T15:22:30;1.00;99.90
29203;DHT22;16245;51.170;4.884;2022-12-18T15:24:57;0.80;99.90
29203;DHT22;16245;51.170;4.884;2022-12-18T15:27:36;0.80;99.90
29203;DHT22;16245;51.170;4.884;2022-12-18T15:32:39;0.80;99.90
29203;DHT22;16245;51.170;4.884;2022-12-18T15:35:13;0.90;99.90
29203;DHT22;16245;51.170;4.884;2022-12-18T15:37:40;1.00;99.90
29203;DHT22;16245;51.170;4.884;2022-12-18T15:40:07;0.80;99.90
29203;DHT22;16245;51.170;4.884;2022-12-18T15:42:33;0.60;99.90
29203;DHT22;16245;51.170;4.884;2022-12-18T15:45:17;0.70;99.90
29203;DHT22;16245;51.170;4.884;2022-12-18T15:47:43;0.80;99.90
29203;DHT22;16245;51.170;4.884;2022-12-18T15:50:09;1.00;99.90
29203;DHT22;16245;51.170;4.884;2022-12-18T15:52:47;0.90;99.90
29203;DHT22;16245;51.170;4.884;2022-12-18T15:55:24;1.10;99.90
29203;DHT22;16245;51.170;4.884;2022-12-18T15:58:09;1.20;99.90
29203;DHT22;16245;51.170;4.884;2022-12-18T16:00:38;1.20;99.90
29203;DHT22;16245;51.170;4.884;2022-12-18T16:03:04;1.30;99.90
29203;DHT22;16245;51.170;4.884;2022-12-18T16:05:30;1.30;99.90
29203;DHT22;16245;51.170;4.884;2022-12-18T16:07:56;1.40;99.90
29203;DHT22;16245;51.170;4.884;2022-12-18T16:10:22;1.40;99.90
29203;DHT22;16245;51.170;4.884;2022-12-18T16:12:49;1.30;99.90
29203;DHT22;16245;51.170;4.884;2022-12-18T16:15:15;1.40;99.90
29203;DHT22;16245;51.170;4.884;2022-12-18T16:17:42;1.50;99.90
29203;DHT22;16245;51.170;4.884;2022-12-18T16:20:28;1.60;99.90
29203;DHT22;16245;51.170;4.884;2022-12-18T16:22:54;1.60;99.90
29203;DHT22;16245;51.170;4.884;2022-12-18T16:25:25;1.70;99.90
29203;DHT22;16245;51.170;4.884;2022-12-18T16:27:52;1.70;99.90
29203;DHT22;16245;51.170;4.884;2022-12-18T16:30:22;1.60;99.90
29203;DHT22;16245;51.170;4.884;2022-12-18T16:32:47;1.60;99.90
29203;DHT22;16245;51.170;4.884;2022-12-18T16:35:15;1.50;99.90
29203;DHT22;16245;51.170;4.884;2022-12-18T16:37:42;1.60;99.90
29203;DHT22;16245;51.170;4.884;2022-12-18T16:40:10;1.60;99.90
29203;DHT22;16245;51.170;4.884;2022-12-18T16:42:38;1.60;99.90
29203;DHT22;16245;51.170;4.884;2022-12-18T16:45:06;1.70;99.90
29203;DHT22;16245;51.170;4.884;2022-12-18T16:47:33;1.60;99.90
29203;DHT22;16245;51.170;4.884;2022-12-18T16:49:59;1.60;99.90
29203;DHT22;16245;51.170;4.884;2022-12-18T16:52:28;1.50;99.90
29203;DHT22;16245;51.170;4.884;2022-12-18T16:54:57;1.50;99.90
29203;DHT22;16245;51.170;4.884;2022-12-18T16:57:23;1.50;99.90
29203;DHT22;16245;51.170;4.884;2022-12-18T16:59:49;1.50;99.90
29203;DHT22;16245;51.170;4.884;2022-12-18T17:02:19;1.50;99.90
29203;DHT22;16245;51.170;4.884;2022-12-18T17:04:45;1.60;99.90
29203;DHT22;16245;51.170;4.884;2022-12-18T17:07:12;1.60;99.90
29203;DHT22;16245;51.170;4.884;2022-12-18T17:09:38;1.60;99.90
29203;DHT22;16245;51.170;4.884;2022-12-18T17:12:04;1.70;99.90
29203;DHT22;16245;51.170;4.884;2022-12-18T17:14:32;1.70;99.90
29203;DHT22;16245;51.170;4.884;2022-12-18T17:16:57;1.60;99.90
29203;DHT22;16245;51.170;4.884;2022-12-18T17:19:25;1.60;99.90
29203;DHT22;16245;51.170;4.884;2022-12-18T17:21:51;1.50;99.90
29203;DHT22;16245;51.170;4.884;2022-12-18T17:24:18;1.60;99.90
29203;DHT22;16245;51.170;4.884;2022-12-18T17:26:44;1.50;99.90
29203;DHT22;16245;51.170;4.884;2022-12-18T17:29:14;1.50;99.90
29203;DHT22;16245;51.170;4.884;2022-12-18T17:31:40;1.50;99.90
29203;DHT22;16245;51.170;4.884;2022-12-18T17:34:05;1.50;99.90
29203;DHT22;16245;51.170;4.884;2022-12-18T17:36:31;1.60;99.90
29203;DHT22;16245;51.170;4.884;2022-12-18T17:38:59;1.70;99.90
29203;DHT22;16245;51.170;4.884;2022-12-18T17:41:26;1.70;99.90
29203;DHT22;16245;51.170;4.884;2022-12-18T17:43:56;1.70;99.90
29203;DHT22;16245;51.170;4.884;2022-12-18T17:46:23;1.70;99.90
29203;DHT22;16245;51.170;4.884;2022-12-18T17:48:50;1.60;99.90
29203;DHT22;16245;51.170;4.884;2022-12-18T17:51:18;1.60;99.90